createdAt,value
2023-02-27T00:00:44.132Z,16.50
2023-02-27T00:03:14.547Z,18.25
2023-02-27T00:05:52.447Z,24.00
2023-02-27T00:08:19.018Z,27.75
2023-02-27T00:10:50.053Z,28.00
2023-02-27T00:13:22.966Z,20.50
2023-02-27T00:15:56.008Z,21.75
2023-02-27T00:18:27.313Z,25.75
2023-02-27T00:20:57.678Z,28.00
2023-02-27T00:23:29.042Z,24.50
2023-02-27T00:26:00.008Z,20.00
2023-02-27T00:28:31.134Z,21.00
2023-02-27T00:31:01.421Z,16.00
2023-02-27T00:33:32.107Z,13.75
2023-02-27T00:36:03.489Z,12.25
2023-02-27T00:38:35.078Z,16.00
2023-02-27T00:41:05.583Z,21.25
2023-02-27T00:43:36.526Z,21.50
2023-02-27T00:46:07.060Z,20.50
2023-02-27T00:48:37.411Z,24.00
2023-02-27T00:51:08.061Z,21.75
2023-02-27T00:53:38.330Z,22.50
2023-02-27T00:56:08.695Z,18.75
2023-02-27T00:58:39.678Z,25.25
2023-02-27T01:01:10.087Z,24.00
2023-02-27T01:03:41.344Z,19.25
2023-02-27T01:06:12.140Z,21.75
2023-02-27T01:08:42.773Z,22.25
2023-02-27T01:11:13.774Z,17.50
2023-02-27T01:13:44.467Z,18.00
2023-02-27T01:16:15.052Z,13.50
2023-02-27T01:18:46.514Z,16.25
2023-02-27T01:21:17.439Z,24.00
2023-02-27T01:23:47.957Z,18.75
2023-02-27T01:26:18.599Z,22.50
2023-02-27T01:28:48.921Z,19.00
2023-02-27T01:31:19.445Z,15.50
2023-02-27T01:33:50.080Z,12.25
2023-02-27T01:36:20.800Z,13.00
2023-02-27T01:38:51.203Z,15.00
2023-02-27T01:41:22.454Z,17.25
2023-02-27T01:44:00.006Z,10.00
2023-02-27T01:46:32.454Z,12.50
2023-02-27T01:49:05.877Z,12.50
2023-02-27T01:51:39.208Z,13.00
2023-02-27T01:54:11.528Z,11.00
2023-02-27T01:56:42.758Z,14.00
2023-02-27T01:59:14.151Z,13.00
2023-02-27T02:01:45.959Z,16.25
2023-02-27T02:04:37.119Z,16.25
2023-02-27T02:07:10.491Z,18.00
2023-02-27T02:09:47.730Z,16.75
2023-02-27T02:12:20.705Z,12.25
2023-02-27T02:14:52.064Z,14.00
2023-02-27T02:17:32.504Z,14.00
2023-02-27T02:20:38.984Z,13.75
2023-02-27T02:23:24.298Z,15.75
2023-02-27T02:26:07.961Z,11.00
2023-02-27T02:29:01.959Z,16.00
2023-02-27T02:31:42.085Z,11.50
2023-02-27T02:37:42.442Z,18.50
2023-02-27T02:40:18.186Z,18.00
2023-02-27T02:43:07.659Z,20.75
2023-02-27T02:46:02.184Z,24.00
2023-02-27T02:48:41.081Z,25.25
2023-02-27T02:51:22.120Z,29.25
2023-02-27T02:54:15.789Z,22.50
2023-02-27T02:56:58.470Z,17.00
2023-02-27T03:02:14.400Z,20.25
2023-02-27T03:04:59.250Z,24.00
2023-02-27T03:07:38.788Z,23.25
2023-02-27T03:10:15.720Z,22.50
2023-02-27T03:12:52.240Z,11.00
2023-02-27T03:15:28.163Z,25.25
2023-02-27T03:18:11.096Z,23.00
2023-02-27T03:20:44.491Z,28.00
2023-02-27T03:23:22.011Z,28.50
2023-02-27T03:25:54.024Z,22.25
2023-02-27T03:28:27.917Z,25.25
2023-02-27T03:31:16.327Z,27.50
2023-02-27T03:34:10.216Z,26.00
2023-02-27T03:37:01.525Z,27.00
2023-02-27T03:39:36.365Z,16.25
2023-02-27T03:42:21.863Z,6.75
2023-02-27T03:44:57.781Z,28.50
2023-02-27T03:47:29.316Z,20.00
2023-02-27T03:50:00.165Z,14.50
2023-02-27T03:52:31.805Z,18.50
2023-02-27T03:55:29.235Z,23.00
2023-02-27T03:58:00.894Z,31.25
2023-02-27T04:00:32.044Z,19.25
2023-02-27T04:03:05.330Z,18.75
2023-02-27T04:05:36.390Z,19.00
2023-02-27T04:08:30.052Z,21.25
2023-02-27T04:11:19.197Z,19.25
2023-02-27T04:14:19.453Z,18.50
2023-02-27T04:17:25.145Z,17.25
2023-02-27T04:20:20.693Z,20.25
2023-02-27T04:23:00.790Z,17.75
2023-02-27T04:25:59.412Z,16.75
2023-02-27T04:28:35.751Z,16.50
2023-02-27T04:31:12.034Z,14.00
2023-02-27T04:37:16.044Z,15.00
2023-02-27T04:40:01.996Z,14.50
2023-02-27T04:45:51.984Z,19.50
2023-02-27T04:48:28.780Z,10.25
2023-02-27T04:51:02.418Z,15.00
2023-02-27T04:53:41.988Z,12.50
2023-02-27T04:56:32.919Z,14.75
2023-02-27T04:59:18.443Z,15.00
2023-02-27T05:01:52.340Z,13.50
2023-02-27T05:04:25.057Z,18.00
2023-02-27T05:06:56.402Z,19.00
2023-02-27T05:09:51.287Z,15.25
2023-02-27T05:12:42.620Z,19.00
2023-02-27T05:15:16.288Z,24.75
2023-02-27T05:17:49.652Z,28.50
2023-02-27T05:20:21.971Z,28.00
2023-02-27T05:23:01.193Z,30.25
2023-02-27T05:28:27.707Z,19.50
2023-02-27T05:31:16.944Z,21.50
2023-02-27T05:33:53.306Z,19.00
2023-02-27T05:36:47.388Z,13.50
2023-02-27T05:39:20.955Z,23.25
2023-02-27T05:41:57.686Z,29.25
2023-02-27T05:44:34.367Z,31.75
2023-02-27T05:47:10.178Z,30.25
2023-02-27T05:49:43.752Z,28.00
2023-02-27T05:52:17.591Z,26.50
2023-02-27T05:54:53.649Z,29.25
2023-02-27T06:03:20.862Z,23.50
2023-02-27T06:05:54.096Z,18.50
2023-02-27T06:08:26.539Z,18.75
2023-02-27T06:10:57.024Z,21.25
2023-02-27T06:13:33.426Z,22.50
2023-02-27T06:16:03.958Z,19.75
2023-02-27T06:18:34.902Z,23.75
2023-02-27T06:21:05.796Z,28.00
2023-02-27T06:23:36.790Z,24.50
2023-02-27T06:26:07.072Z,28.75
2023-02-27T06:28:37.366Z,28.50
2023-02-27T06:31:07.951Z,29.75
2023-02-27T06:33:38.515Z,29.50
2023-02-27T06:36:08.870Z,28.00
2023-02-27T06:38:39.174Z,29.50
2023-02-27T06:41:10.155Z,28.50
2023-02-27T06:43:40.566Z,28.75
2023-02-27T06:46:13.462Z,32.75
2023-02-27T06:48:44.600Z,28.00
2023-02-27T06:51:15.001Z,27.75
2023-02-27T06:53:45.442Z,29.25
2023-02-27T06:56:16.783Z,25.25
2023-02-27T06:58:47.399Z,28.00
2023-02-27T07:01:21.146Z,28.25
2023-02-27T07:03:51.663Z,23.25
2023-02-27T07:07:33.347Z,24.25
2023-02-27T07:09:02.110Z,25.25
2023-02-27T07:11:28.228Z,26.25
2023-02-27T07:14:25.614Z,29.00
2023-02-27T07:16:56.069Z,26.25
2023-02-27T07:19:26.809Z,24.75
2023-02-27T07:21:57.696Z,24.25
2023-02-27T07:24:28.459Z,19.50
2023-02-27T07:27:00.590Z,23.25
2023-02-27T07:29:31.000Z,22.00
2023-02-27T07:32:01.406Z,17.75
2023-02-27T07:34:31.863Z,21.25
2023-02-27T07:37:02.496Z,18.75
2023-02-27T07:39:33.321Z,18.00
2023-02-27T07:42:03.782Z,20.50
2023-02-27T07:44:34.632Z,24.75
2023-02-27T07:47:05.148Z,20.50
2023-02-27T07:49:36.366Z,24.00
2023-02-27T07:52:07.603Z,22.50
2023-02-27T07:54:38.438Z,19.25
2023-02-27T07:57:10.089Z,21.00
2023-02-27T07:59:41.022Z,24.25
2023-02-27T08:02:13.053Z,25.00
2023-02-27T08:04:43.453Z,21.00
2023-02-27T08:07:14.182Z,21.50
2023-02-27T08:09:44.602Z,19.50
2023-02-27T08:12:16.487Z,19.25
2023-02-27T08:14:47.119Z,18.50
2023-02-27T08:17:19.254Z,11.25
2023-02-27T08:19:50.270Z,19.25
2023-02-27T08:22:20.991Z,20.50
2023-02-27T08:24:51.854Z,22.00
2023-02-27T08:27:22.471Z,25.00
2023-02-27T08:29:52.797Z,21.25
2023-02-27T08:32:23.966Z,20.50
2023-02-27T08:34:55.279Z,23.50
2023-02-27T08:37:25.893Z,18.25
2023-02-27T08:39:56.252Z,17.75
2023-02-27T08:42:27.019Z,15.00
2023-02-27T08:45:00.646Z,17.50
2023-02-27T08:47:36.553Z,27.75
2023-02-27T08:50:07.332Z,29.25
2023-02-27T08:52:39.157Z,27.00
2023-02-27T08:55:10.453Z,24.25
2023-02-27T08:57:41.249Z,17.25
2023-02-27T09:00:18.764Z,21.50
2023-02-27T09:02:49.236Z,17.50
2023-02-27T09:05:24.780Z,18.00
2023-02-27T09:08:11.838Z,18.25
2023-02-27T09:10:42.980Z,16.00
2023-02-27T09:13:14.878Z,22.50
2023-02-27T09:15:49.969Z,22.75
2023-02-27T09:18:20.982Z,25.75
2023-02-27T09:20:52.030Z,27.00
2023-02-27T09:23:22.991Z,27.50
2023-02-27T09:25:53.430Z,29.50
2023-02-27T09:28:23.838Z,28.00
2023-02-27T09:30:54.873Z,25.50
2023-02-27T09:33:29.055Z,27.00
2023-02-27T09:35:58.647Z,23.25
2023-02-27T09:38:29.117Z,24.75
2023-02-27T09:41:00.370Z,24.25
2023-02-27T09:43:37.196Z,14.25
2023-02-27T09:46:10.176Z,24.75
2023-02-27T09:48:49.482Z,28.25
2023-02-27T09:51:21.362Z,23.00
2023-02-27T09:53:57.790Z,27.00
2023-02-27T09:56:33.586Z,27.75
2023-02-27T09:59:09.138Z,28.00
2023-02-27T10:01:57.799Z,32.25
2023-02-27T10:05:01.783Z,27.00
2023-02-27T10:07:56.346Z,28.00
2023-02-27T10:14:03.888Z,26.75
2023-02-27T10:16:35.159Z,28.25
2023-02-27T10:19:09.236Z,29.00
2023-02-27T10:21:43.022Z,26.50
2023-02-27T10:24:23.324Z,28.50
2023-02-27T10:26:56.513Z,27.50
2023-02-27T10:29:32.752Z,25.25
2023-02-27T10:32:10.145Z,27.00
2023-02-27T10:34:46.603Z,29.25
2023-02-27T10:37:19.957Z,24.00
2023-02-27T10:39:53.366Z,25.25
2023-02-27T10:42:27.809Z,22.00
2023-02-27T10:44:58.756Z,28.25
2023-02-27T10:47:31.210Z,27.00
2023-02-27T10:50:03.359Z,28.75
2023-02-27T10:52:34.080Z,27.50
2023-02-27T10:55:10.251Z,25.75
2023-02-27T10:57:48.196Z,27.00
2023-02-27T11:00:44.663Z,23.50
2023-02-27T11:03:27.403Z,28.25
2023-02-27T11:06:01.906Z,29.25
2023-02-27T11:08:35.156Z,30.00
2023-02-27T11:11:13.615Z,31.50
2023-02-27T11:13:50.770Z,27.50
2023-02-27T11:16:28.540Z,29.50
2023-02-27T11:19:01.132Z,28.00
2023-02-27T11:21:34.678Z,28.75
2023-02-27T11:24:08.137Z,27.25
2023-02-27T11:26:44.389Z,24.00
2023-02-27T11:29:17.753Z,22.50
2023-02-27T11:31:54.807Z,23.75
2023-02-27T11:34:31.895Z,15.00
2023-02-27T11:40:14.936Z,22.50
2023-02-27T11:42:51.568Z,25.50
2023-02-27T11:46:10.185Z,21.75
2023-02-27T11:48:15.008Z,26.00
2023-02-27T11:50:57.161Z,23.50
2023-02-27T11:53:58.003Z,23.25
2023-02-27T11:56:46.475Z,22.75
2023-02-27T11:59:41.063Z,17.00
2023-02-27T12:02:26.121Z,21.75
2023-02-27T12:05:02.465Z,17.75
2023-02-27T12:07:44.168Z,13.25
2023-02-27T12:13:19.283Z,21.00
2023-02-27T12:16:10.703Z,22.50
2023-02-27T12:18:49.758Z,17.25
2023-02-27T12:21:26.446Z,17.50
2023-02-27T12:27:10.188Z,12.50
2023-02-27T12:29:45.858Z,16.25
2023-02-27T12:32:33.705Z,17.25
2023-02-27T12:35:33.196Z,20.50
2023-02-27T12:38:06.950Z,20.25
2023-02-27T12:47:04.127Z,15.25
2023-02-27T12:52:39.622Z,12.75
2023-02-27T12:55:29.121Z,14.75
2023-02-27T12:58:20.332Z,11.25
2023-02-27T13:01:04.818Z,12.00
2023-02-27T13:03:53.183Z,17.50
2023-02-27T13:06:47.324Z,15.75
2023-02-27T13:09:40.149Z,5.00
2023-02-27T13:12:21.107Z,14.50
2023-02-27T13:15:05.482Z,13.25
2023-02-27T13:17:45.427Z,13.00
2023-02-27T13:20:35.311Z,11.75
2023-02-27T13:23:29.419Z,7.00
2023-02-27T13:26:02.140Z,9.25
2023-02-27T13:28:34.323Z,6.75
2023-02-27T13:31:31.999Z,8.75
2023-02-27T13:34:21.988Z,10.50
2023-02-27T13:36:55.265Z,9.00
2023-02-27T13:39:47.627Z,8.25
2023-02-27T13:42:49.400Z,10.25
2023-02-27T13:45:48.847Z,7.00
2023-02-27T13:48:55.760Z,9.50
2023-02-27T13:52:01.882Z,8.75
2023-02-27T13:54:36.307Z,5.50
2023-02-27T13:57:14.924Z,6.50
2023-02-27T13:59:57.750Z,7.00
2023-02-27T14:02:57.811Z,6.00
2023-02-27T14:05:17.084Z,8.25
2023-02-27T14:08:05.115Z,7.75
2023-02-27T14:13:57.114Z,2.00
2023-02-27T14:16:56.121Z,6.00
2023-02-27T14:19:34.955Z,3.50
2023-02-27T14:22:17.812Z,4.00
2023-02-27T14:25:03.481Z,5.50
2023-02-27T14:27:46.977Z,6.00
2023-02-27T14:30:37.845Z,2.75
2023-02-27T14:33:37.563Z,2.25
2023-02-27T14:36:04.723Z,6.00
2023-02-27T14:38:35.815Z,5.00
2023-02-27T14:41:09.875Z,5.00
2023-02-27T14:46:40.057Z,8.50
2023-02-27T14:49:30.115Z,9.00
2023-02-27T14:52:24.247Z,5.50
2023-02-27T14:55:14.306Z,8.00
2023-02-27T14:57:59.324Z,5.75
2023-02-27T15:00:50.738Z,9.75
2023-02-27T15:06:37.397Z,8.00
2023-02-27T15:09:08.854Z,5.00
2023-02-27T15:11:43.205Z,5.25
2023-02-27T15:14:20.602Z,5.75
2023-02-27T15:16:57.922Z,6.00
2023-02-27T15:19:30.405Z,6.00
2023-02-27T15:22:05.350Z,5.25
2023-02-27T15:24:49.610Z,5.25
2023-02-27T15:27:19.792Z,5.50
2023-02-27T15:32:55.878Z,6.50
2023-02-27T15:35:29.256Z,4.00
2023-02-27T15:38:00.888Z,6.25
2023-02-27T15:40:33.301Z,5.50
2023-02-27T15:43:06.080Z,7.00
2023-02-27T15:45:39.554Z,4.00
2023-02-27T15:48:15.455Z,4.50
2023-02-27T15:51:01.099Z,5.50
2023-02-27T15:53:32.260Z,5.00
2023-02-27T15:56:05.926Z,0.00
2023-02-27T15:58:39.017Z,2.00
2023-02-27T16:01:15.663Z,5.00
2023-02-27T16:03:55.667Z,4.50
2023-02-27T16:12:21.719Z,4.50
2023-02-27T16:14:53.748Z,3.00
2023-02-27T16:17:30.730Z,3.00
2023-02-27T16:20:03.644Z,2.00
2023-02-27T16:22:34.174Z,2.25
2023-02-27T16:25:13.245Z,0.00
2023-02-27T16:28:02.963Z,2.00
2023-02-27T16:30:25.797Z,2.50
2023-02-27T16:33:18.438Z,1.25
2023-02-27T16:35:53.429Z,1.75
2023-02-27T16:38:25.778Z,2.50
2023-02-27T16:41:16.228Z,1.00
2023-02-27T16:43:48.377Z,1.00
2023-02-27T16:46:21.869Z,1.25
2023-02-27T16:49:00.712Z,1.00
2023-02-27T16:51:38.934Z,1.75
2023-02-27T16:54:12.357Z,0.25
2023-02-27T16:56:45.625Z,2.00
2023-02-27T16:59:21.780Z,2.75
2023-02-27T17:01:52.224Z,1.00
2023-02-27T17:04:25.879Z,2.00
2023-02-27T17:06:56.836Z,2.00
2023-02-27T17:09:29.274Z,2.00
2023-02-27T17:12:03.483Z,2.50
2023-02-27T17:14:43.495Z,2.00
2023-02-27T17:17:10.802Z,2.25
2023-02-27T17:19:47.567Z,1.25
2023-02-27T17:22:20.859Z,1.25
2023-02-27T17:27:30.555Z,1.50
2023-02-27T17:30:06.714Z,2.25
2023-02-27T17:32:39.067Z,6.00
2023-02-27T17:35:15.636Z,1.75
2023-02-27T17:37:50.077Z,3.00
2023-02-27T17:40:30.953Z,3.00
2023-02-27T17:43:12.012Z,1.75
2023-02-27T17:45:40.586Z,1.75
2023-02-27T17:48:15.573Z,1.00
2023-02-27T17:50:51.023Z,1.00
2023-02-27T17:53:22.448Z,2.00
2023-02-27T17:55:57.065Z,2.00
2023-02-27T17:58:48.643Z,2.00
2023-02-27T18:01:21.784Z,1.20
2023-02-27T18:04:11.961Z,2.20
2023-02-27T18:06:44.605Z,2.00
2023-02-27T18:09:19.568Z,5.80
2023-02-27T18:11:58.448Z,6.00
2023-02-27T18:14:43.391Z,2.50
2023-02-27T18:20:19.951Z,4.00
2023-02-27T18:22:53.534Z,1.00
2023-02-27T18:25:24.325Z,2.25
2023-02-27T18:27:57.666Z,2.00
2023-02-27T18:30:31.765Z,2.00
2023-02-27T18:33:03.713Z,0.75
2023-02-27T18:35:40.369Z,2.00
2023-02-27T18:38:15.442Z,2.50
2023-02-27T18:40:45.676Z,0.75
2023-02-27T18:43:16.362Z,1.75
2023-02-27T18:45:49.483Z,2.25
2023-02-27T18:48:23.064Z,1.50
2023-02-27T18:50:56.531Z,2.75
2023-02-27T18:53:27.262Z,2.00
2023-02-27T18:56:13.585Z,1.25
2023-02-27T18:58:45.269Z,2.25
2023-02-27T19:01:26.554Z,2.00
2023-02-27T19:03:57.210Z,2.75
2023-02-27T19:06:35.107Z,2.00
2023-02-27T19:09:14.675Z,2.00
2023-02-27T19:11:48.520Z,2.00
2023-02-27T19:14:23.242Z,1.25
2023-02-27T19:16:57.492Z,1.00
2023-02-27T19:19:30.887Z,1.25
2023-02-27T19:22:05.333Z,2.75
2023-02-27T19:24:37.397Z,2.00
2023-02-27T19:27:10.592Z,2.50
2023-02-27T19:29:46.867Z,1.50
2023-02-27T19:32:16.026Z,5.75
2023-02-27T19:34:53.401Z,3.00
2023-02-27T19:37:37.127Z,2.50
2023-02-27T19:40:09.115Z,3.50
2023-02-27T19:42:47.672Z,4.75
2023-02-27T19:45:24.570Z,5.50
2023-02-27T19:47:58.073Z,6.00
2023-02-27T19:50:34.962Z,5.00
2023-02-27T19:53:05.887Z,6.25
2023-02-27T19:55:39.421Z,3.00
2023-02-27T19:58:09.864Z,4.50
2023-02-27T20:00:41.359Z,5.00
2023-02-27T20:03:15.447Z,5.75
2023-02-27T20:05:52.099Z,5.00
2023-02-27T20:08:26.348Z,3.00
2023-02-27T20:11:13.481Z,8.00
2023-02-27T20:13:49.651Z,5.00
2023-02-27T20:16:21.795Z,3.00
2023-02-27T20:18:54.018Z,6.00
2023-02-27T20:21:29.580Z,5.25
2023-02-27T20:24:03.974Z,6.50
2023-02-27T20:26:38.619Z,7.00
2023-02-27T20:29:34.348Z,3.00
2023-02-27T20:32:06.992Z,6.00
2023-02-27T20:34:43.886Z,6.80
2023-02-27T20:37:16.470Z,6.00
2023-02-27T20:39:50.444Z,2.20
2023-02-27T20:42:22.295Z,2.75
2023-02-27T20:44:52.766Z,4.50
2023-02-27T20:47:25.070Z,5.00
2023-02-27T20:49:59.369Z,7.00
2023-02-27T20:52:34.087Z,9.00
2023-02-27T20:55:10.188Z,5.25
2023-02-27T20:57:44.385Z,5.75
2023-02-27T21:00:28.267Z,4.50
2023-02-27T21:06:00.833Z,14.00
2023-02-27T21:08:36.273Z,8.25
2023-02-27T21:11:37.041Z,9.75
2023-02-27T21:14:09.978Z,6.40
2023-02-27T21:16:46.934Z,4.20
2023-02-27T21:19:20.664Z,5.00
2023-02-27T21:21:51.510Z,5.00
2023-02-27T21:24:23.567Z,5.40
2023-02-27T21:30:19.444Z,2.80
2023-02-27T21:32:55.566Z,6.00
2023-02-27T21:35:26.897Z,6.20
2023-02-27T21:38:04.861Z,6.00
2023-02-27T21:40:39.076Z,3.00
2023-02-27T21:43:09.955Z,4.50
2023-02-27T21:45:40.604Z,5.50
2023-02-27T21:48:11.382Z,6.25
2023-02-27T21:50:42.744Z,5.75
2023-02-27T21:53:13.656Z,6.00
2023-02-27T21:55:47.245Z,5.25
2023-02-27T21:58:21.562Z,6.50
2023-02-27T22:00:59.374Z,6.50
2023-02-27T22:03:30.590Z,8.00
2023-02-27T22:06:05.577Z,9.50
2023-02-27T22:08:42.916Z,9.00
2023-02-27T22:11:14.130Z,11.00
2023-02-27T22:13:44.822Z,7.20
2023-02-27T22:16:15.910Z,11.20
2023-02-27T22:18:50.223Z,17.00
2023-02-27T22:21:24.560Z,13.50
2023-02-27T22:23:56.545Z,15.75
2023-02-27T22:26:30.233Z,19.75
2023-02-27T22:29:06.448Z,53.20
2023-02-27T22:31:38.936Z,69.25
2023-02-27T22:37:12.158Z,89.00
2023-02-27T22:39:42.562Z,78.50
2023-02-27T22:42:13.482Z,56.75
2023-02-27T22:44:43.847Z,48.50
2023-02-27T22:47:14.239Z,34.60
2023-02-27T22:49:45.174Z,30.00
2023-02-27T22:52:15.866Z,25.75
2023-02-27T22:54:46.156Z,39.40
2023-02-27T22:57:16.591Z,29.25
2023-02-27T22:59:54.765Z,22.00
2023-02-27T23:02:24.282Z,37.20
2023-02-27T23:04:54.500Z,48.00
2023-02-27T23:07:26.105Z,70.75
2023-02-27T23:09:56.457Z,99.00
2023-02-27T23:12:27.505Z,113.75
2023-02-27T23:14:59.034Z,106.75
2023-02-27T23:17:30.023Z,106.00
2023-02-27T23:20:01.034Z,116.50
2023-02-27T23:22:32.252Z,109.25
2023-02-27T23:25:03.001Z,101.75
2023-02-27T23:27:34.862Z,110.75
2023-02-27T23:30:09.497Z,106.00
2023-02-27T23:32:52.342Z,98.75
2023-02-27T23:35:24.958Z,100.75
2023-02-27T23:37:59.503Z,109.50
2023-02-27T23:40:30.543Z,102.20
2023-02-27T23:43:00.972Z,86.20
2023-02-27T23:45:32.441Z,95.40
2023-02-27T23:48:04.391Z,103.50
2023-02-27T23:50:38.117Z,114.00
2023-02-27T23:53:08.846Z,102.75
2023-02-27T23:55:39.624Z,113.75
2023-02-27T23:58:11.571Z,111.00
